createdAt,value
2019-02-14T00:00:41.481Z,40.10
2019-02-14T00:03:09.880Z,41.10
2019-02-14T00:05:38.294Z,42.33
2019-02-14T00:08:06.698Z,44.17
2019-02-14T00:10:35.116Z,42.50
2019-02-14T00:13:03.626Z,52.50
2019-02-14T00:15:32.038Z,41.13
2019-02-14T00:18:00.447Z,47.23
2019-02-14T00:20:28.869Z,40.30
2019-02-14T00:22:57.275Z,38.00
2019-02-14T00:25:25.673Z,48.37
2019-02-14T00:27:54.262Z,45.07
2019-02-14T00:30:22.673Z,46.73
2019-02-14T00:32:51.078Z,52.20
2019-02-14T00:35:24.894Z,42.03
2019-02-14T00:37:50.476Z,42.30
2019-02-14T00:40:18.880Z,49.03
2019-02-14T00:42:47.300Z,61.10
2019-02-14T00:45:15.699Z,45.83
2019-02-14T00:47:44.164Z,47.17
2019-02-14T00:50:12.593Z,66.90
2019-02-14T00:52:41.013Z,51.40
2019-02-14T00:55:09.426Z,51.63
2019-02-14T00:57:37.831Z,58.63
2019-02-14T01:00:08.286Z,47.23
2019-02-14T01:02:36.721Z,50.40
2019-02-14T01:05:06.573Z,45.23
2019-02-14T01:07:34.994Z,42.87
2019-02-14T01:10:03.906Z,53.03
2019-02-14T01:12:32.328Z,47.53
2019-02-14T01:15:00.727Z,55.80
2019-02-14T01:17:29.144Z,52.27
2019-02-14T01:19:57.550Z,49.77
2019-02-14T01:22:25.956Z,53.40
2019-02-14T01:24:54.364Z,49.47
2019-02-14T01:27:22.776Z,55.90
2019-02-14T01:29:51.196Z,56.47
2019-02-14T01:32:19.665Z,51.60
2019-02-14T01:34:48.140Z,54.00
2019-02-14T01:37:16.560Z,58.57
2019-02-14T01:39:44.965Z,60.97
2019-02-14T01:42:13.384Z,53.57
2019-02-14T01:44:41.852Z,58.27
2019-02-14T01:47:10.276Z,62.70
2019-02-14T01:49:38.698Z,61.10
2019-02-14T01:52:07.121Z,61.67
2019-02-14T01:54:35.532Z,61.53
2019-02-14T01:57:04.297Z,61.50
2019-02-14T01:59:32.698Z,58.70
2019-02-14T02:02:01.392Z,60.60
2019-02-14T02:04:29.792Z,62.90
2019-02-14T02:06:58.205Z,54.07
2019-02-14T02:09:26.812Z,56.53
2019-02-14T02:11:55.517Z,59.80
2019-02-14T02:14:23.934Z,55.97
2019-02-14T02:16:52.355Z,57.87
2019-02-14T02:19:20.766Z,59.43
2019-02-14T02:21:49.485Z,60.73
2019-02-14T02:24:17.898Z,54.80
2019-02-14T02:26:46.296Z,58.83
2019-02-14T02:29:14.708Z,59.37
2019-02-14T02:31:43.108Z,58.57
2019-02-14T02:34:11.540Z,62.10
2019-02-14T02:36:39.937Z,58.97
2019-02-14T02:39:08.633Z,59.53
2019-02-14T02:41:37.039Z,70.97
2019-02-14T02:44:05.452Z,61.10
2019-02-14T02:46:33.860Z,59.27
2019-02-14T02:49:02.295Z,62.53
2019-02-14T02:51:30.692Z,60.57
2019-02-14T02:53:59.266Z,64.83
2019-02-14T02:56:27.693Z,55.37
2019-02-14T02:58:56.120Z,62.57
2019-02-14T03:01:24.526Z,58.43
2019-02-14T03:03:52.940Z,63.83
2019-02-14T03:06:22.904Z,59.23
2019-02-14T03:08:51.444Z,58.23
2019-02-14T03:11:19.867Z,59.77
2019-02-14T03:13:48.284Z,60.13
2019-02-14T03:16:16.891Z,65.37
2019-02-14T03:18:45.404Z,60.47
2019-02-14T03:21:13.808Z,67.40
2019-02-14T03:23:42.231Z,58.97
2019-02-14T03:26:10.688Z,62.43
2019-02-14T03:28:39.097Z,64.03
2019-02-14T03:31:07.527Z,64.60
2019-02-14T03:33:35.929Z,60.33
2019-02-14T03:36:04.348Z,63.53
2019-02-14T03:38:32.754Z,72.60
2019-02-14T03:41:01.707Z,64.03
2019-02-14T03:43:30.230Z,59.07
2019-02-14T03:45:58.670Z,67.57
2019-02-14T03:48:27.090Z,64.10
2019-02-14T03:50:55.497Z,61.23
2019-02-14T03:53:23.909Z,62.90
2019-02-14T03:55:52.335Z,58.80
2019-02-14T03:58:22.391Z,69.87
2019-02-14T04:00:50.812Z,64.80
2019-02-14T04:03:19.212Z,64.73
2019-02-14T04:05:47.620Z,58.73
2019-02-14T04:08:16.187Z,62.30
2019-02-14T04:10:44.604Z,68.30
2019-02-14T04:13:13.007Z,62.20
2019-02-14T04:15:41.417Z,77.10
2019-02-14T04:18:09.824Z,72.30
2019-02-14T04:20:38.237Z,73.17
2019-02-14T04:23:06.636Z,62.70
2019-02-14T04:25:35.048Z,70.90
2019-02-14T04:28:03.452Z,64.30
2019-02-14T04:30:31.872Z,74.50
2019-02-14T04:33:00.271Z,61.93
2019-02-14T04:35:28.691Z,68.63
2019-02-14T04:37:57.095Z,71.67
2019-02-14T04:40:33.227Z,64.30
2019-02-14T04:42:55.627Z,72.23
2019-02-14T04:45:24.190Z,63.30
2019-02-14T04:47:52.596Z,76.83
2019-02-14T04:50:21.032Z,64.40
2019-02-14T04:52:49.444Z,67.43
2019-02-14T04:55:17.840Z,67.77
2019-02-14T04:57:46.269Z,74.30
2019-02-14T05:00:16.012Z,63.00
2019-02-14T05:02:44.438Z,66.00
2019-02-14T05:05:12.844Z,63.90
2019-02-14T05:07:41.307Z,73.00
2019-02-14T05:10:12.004Z,73.03
2019-02-14T05:12:40.417Z,67.33
2019-02-14T05:15:10.265Z,76.93
2019-02-14T05:17:38.686Z,67.97
2019-02-14T05:20:11.848Z,76.27
2019-02-14T05:22:40.269Z,76.73
2019-02-14T05:25:09.604Z,70.27
2019-02-14T05:27:38.294Z,70.43
2019-02-14T05:30:12.484Z,64.47
2019-02-14T05:32:40.902Z,79.70
2019-02-14T05:35:09.599Z,68.60
2019-02-14T05:37:38.271Z,68.27
2019-02-14T05:40:09.485Z,63.30
2019-02-14T05:42:38.351Z,67.77
2019-02-14T05:45:11.664Z,71.90
2019-02-14T05:47:40.083Z,69.20
2019-02-14T05:50:11.602Z,72.77
2019-02-14T05:52:40.012Z,83.20
2019-02-14T05:55:10.661Z,73.53
2019-02-14T05:57:39.118Z,64.03
2019-02-14T06:00:13.400Z,68.87
2019-02-14T06:02:41.820Z,65.47
2019-02-14T06:05:10.219Z,76.73
2019-02-14T06:07:38.642Z,72.70
2019-02-14T06:10:09.582Z,76.33
2019-02-14T06:12:38.005Z,72.07
2019-02-14T06:15:09.348Z,67.17
2019-02-14T06:17:37.766Z,66.10
2019-02-14T06:20:08.910Z,71.47
2019-02-14T06:22:37.328Z,77.20
2019-02-14T06:25:08.543Z,71.80
2019-02-14T06:27:36.981Z,72.90
2019-02-14T06:30:08.910Z,75.27
2019-02-14T06:32:37.580Z,65.20
2019-02-14T06:35:25.621Z,79.17
2019-02-14T06:37:54.932Z,75.43
2019-02-14T06:40:23.930Z,75.17
2019-02-14T06:42:52.479Z,87.83
2019-02-14T06:45:21.069Z,71.10
2019-02-14T06:47:49.464Z,76.97
2019-02-14T06:50:17.876Z,71.10
2019-02-14T06:52:46.283Z,78.83
2019-02-14T06:55:14.696Z,72.07
2019-02-14T06:57:43.796Z,78.67
2019-02-14T07:00:16.867Z,77.63
2019-02-14T07:02:45.264Z,69.50
2019-02-14T07:05:13.748Z,75.90
2019-02-14T07:07:42.151Z,65.50
2019-02-14T07:10:11.512Z,80.60
2019-02-14T07:12:39.928Z,75.90
2019-02-14T07:15:11.363Z,68.20
2019-02-14T07:17:39.793Z,82.50
2019-02-14T07:20:17.805Z,76.93
2019-02-14T07:22:46.216Z,75.90
2019-02-14T07:25:14.629Z,73.50
2019-02-14T07:27:43.029Z,72.20
2019-02-14T07:30:14.979Z,67.40
2019-02-14T07:32:43.385Z,81.10
2019-02-14T07:35:11.796Z,74.93
2019-02-14T07:37:40.200Z,75.03
2019-02-14T07:40:11.347Z,64.93
2019-02-14T07:42:40.025Z,70.27
2019-02-14T07:45:13.703Z,70.60
2019-02-14T07:47:42.108Z,72.70
2019-02-14T07:50:12.633Z,72.53
2019-02-14T07:52:42.585Z,81.97
2019-02-14T07:55:14.412Z,70.20
2019-02-14T07:57:43.297Z,88.13
2019-02-14T08:00:14.416Z,65.47
2019-02-14T08:02:42.818Z,72.80
2019-02-14T08:05:12.077Z,69.00
2019-02-14T08:07:40.544Z,65.87
2019-02-14T08:10:11.714Z,75.33
2019-02-14T08:12:40.122Z,80.87
2019-02-14T08:15:11.084Z,69.57
2019-02-14T08:17:40.713Z,86.70
2019-02-14T08:20:12.232Z,69.03
2019-02-14T08:22:40.635Z,76.60
2019-02-14T08:25:11.393Z,64.10
2019-02-14T08:27:39.848Z,68.37
2019-02-14T08:30:16.137Z,65.90
2019-02-14T08:32:44.551Z,65.23
2019-02-14T08:35:12.955Z,62.93
2019-02-14T08:37:45.493Z,67.70
2019-02-14T08:40:26.824Z,67.53
2019-02-14T08:42:55.316Z,60.80
2019-02-14T08:45:23.741Z,69.40
2019-02-14T08:47:52.166Z,65.90
2019-02-14T08:50:20.598Z,70.47
2019-02-14T08:52:49.044Z,70.03
2019-02-14T08:55:17.461Z,64.03
2019-02-14T08:57:45.866Z,64.63
2019-02-14T09:00:16.595Z,60.00
2019-02-14T09:02:46.440Z,62.60
2019-02-14T09:05:14.857Z,63.40
2019-02-14T09:07:43.257Z,65.67
2019-02-14T09:10:16.568Z,65.03
2019-02-14T09:12:44.966Z,62.63
2019-02-14T09:15:15.189Z,59.07
2019-02-14T09:17:43.716Z,72.70
2019-02-14T09:20:17.238Z,64.07
2019-02-14T09:22:46.059Z,56.73
2019-02-14T09:25:14.476Z,58.50
2019-02-14T09:27:42.883Z,65.00
2019-02-14T09:30:13.151Z,65.27
2019-02-14T09:32:41.677Z,64.90
2019-02-14T09:35:10.882Z,63.63
2019-02-14T09:37:39.284Z,62.33
2019-02-14T09:40:13.152Z,61.00
2019-02-14T09:42:41.567Z,67.80
2019-02-14T09:45:12.409Z,67.80
2019-02-14T09:47:40.830Z,63.97
2019-02-14T09:50:11.870Z,65.90
2019-02-14T09:52:41.465Z,62.63
2019-02-14T09:55:12.036Z,59.43
2019-02-14T09:57:40.507Z,61.17
2019-02-14T10:00:11.829Z,70.80
2019-02-14T10:02:40.675Z,65.90
2019-02-14T10:05:10.109Z,58.43
2019-02-14T10:07:38.543Z,67.37
2019-02-14T10:10:15.947Z,61.30
2019-02-14T10:12:44.411Z,60.23
2019-02-14T10:15:13.460Z,78.67
2019-02-14T10:17:41.872Z,71.37
2019-02-14T10:20:15.958Z,69.87
2019-02-14T10:22:44.368Z,66.73
2019-02-14T10:25:13.416Z,75.37
2019-02-14T10:27:41.830Z,64.30
2019-02-14T10:30:21.278Z,67.20
2019-02-14T10:32:49.689Z,63.80
2019-02-14T10:35:18.095Z,59.83
2019-02-14T10:37:46.512Z,61.07
2019-02-14T10:40:16.264Z,60.30
2019-02-14T10:42:45.064Z,63.17
2019-02-14T10:45:18.867Z,77.73
2019-02-14T10:47:47.280Z,63.70
2019-02-14T10:50:15.686Z,59.93
2019-02-14T10:52:44.145Z,71.17
2019-02-14T10:55:14.188Z,65.20
2019-02-14T10:57:42.612Z,55.40
2019-02-14T11:00:17.735Z,55.40
2019-02-14T11:02:47.143Z,67.87
2019-02-14T11:05:16.616Z,60.17
2019-02-14T11:07:45.297Z,63.47
2019-02-14T11:10:14.936Z,67.83
2019-02-14T11:12:43.724Z,60.80
2019-02-14T11:15:20.584Z,53.47
2019-02-14T11:17:49.363Z,58.43
2019-02-14T11:20:18.282Z,53.37
2019-02-14T11:22:48.806Z,45.80
2019-02-14T11:25:20.186Z,60.23
2019-02-14T11:27:48.846Z,55.03
2019-02-14T11:30:17.244Z,50.27
2019-02-14T11:32:45.656Z,47.77
2019-02-14T11:35:14.164Z,50.70
2019-02-14T11:37:42.607Z,52.87
2019-02-14T11:40:13.315Z,54.60
2019-02-14T11:42:41.745Z,49.77
2019-02-14T11:45:13.088Z,51.90
2019-02-14T11:47:41.500Z,46.93
2019-02-14T11:50:11.800Z,53.63
2019-02-14T11:52:40.209Z,60.70
2019-02-14T11:55:10.659Z,54.80
2019-02-14T11:57:39.432Z,45.33
2019-02-14T12:00:22.860Z,56.27
2019-02-14T12:02:55.467Z,37.47
2019-02-14T12:05:21.429Z,44.07
2019-02-14T12:07:49.836Z,40.10
2019-02-14T12:10:18.244Z,47.60
2019-02-14T12:12:46.657Z,38.90
2019-02-14T12:15:15.065Z,37.83
2019-02-14T12:17:43.476Z,40.53
2019-02-14T12:20:15.963Z,34.27
2019-02-14T12:22:46.736Z,44.60
2019-02-14T12:25:17.603Z,47.70
2019-02-14T12:27:46.008Z,37.73
2019-02-14T12:30:15.564Z,33.60
2019-02-14T12:32:43.984Z,34.07
2019-02-14T12:35:12.660Z,33.40
2019-02-14T12:37:41.075Z,37.73
2019-02-14T12:40:12.162Z,36.07
2019-02-14T12:42:40.572Z,28.47
2019-02-14T12:45:20.342Z,27.83
2019-02-14T12:47:44.964Z,25.90
2019-02-14T12:50:13.496Z,31.00
2019-02-14T12:52:41.904Z,25.73
2019-02-14T12:55:10.327Z,29.33
2019-02-14T12:57:38.764Z,40.70
2019-02-14T13:00:16.386Z,29.53
2019-02-14T13:02:44.796Z,31.90
2019-02-14T13:05:13.589Z,27.37
2019-02-14T13:07:41.996Z,31.83
2019-02-14T13:10:15.717Z,26.17
2019-02-14T13:12:44.241Z,32.47
2019-02-14T13:15:26.601Z,23.73
2019-02-14T13:17:55.072Z,27.50
2019-02-14T13:20:23.494Z,27.93
2019-02-14T13:22:51.908Z,28.17
2019-02-14T13:25:20.538Z,25.97
2019-02-14T13:27:48.961Z,25.50
2019-02-14T13:30:20.456Z,31.53
2019-02-14T13:32:49.041Z,20.67
2019-02-14T13:35:17.464Z,20.80
2019-02-14T13:37:45.934Z,25.17
2019-02-14T13:40:14.388Z,29.13
2019-02-14T13:42:42.810Z,21.30
2019-02-14T13:45:13.858Z,20.87
2019-02-14T13:47:42.425Z,17.13
2019-02-14T13:50:12.478Z,18.63
2019-02-14T13:52:41.164Z,21.50
2019-02-14T13:55:10.830Z,18.20
2019-02-14T13:57:39.768Z,21.13
2019-02-14T14:00:14.031Z,14.00
2019-02-14T14:02:42.440Z,21.67
2019-02-14T14:05:10.844Z,17.67
2019-02-14T14:07:40.610Z,19.17
2019-02-14T14:10:10.324Z,19.07
2019-02-14T14:12:38.766Z,31.47
2019-02-14T14:15:09.214Z,18.80
2019-02-14T14:17:37.681Z,21.27
2019-02-14T14:20:08.088Z,24.03
2019-02-14T14:22:36.500Z,14.27
2019-02-14T14:25:06.649Z,18.10
2019-02-14T14:27:35.224Z,17.40
2019-02-14T14:30:05.932Z,18.63
2019-02-14T14:32:34.353Z,20.87
2019-02-14T14:35:02.802Z,20.87
2019-02-14T14:37:31.226Z,26.90
2019-02-14T14:39:59.636Z,20.03
2019-02-14T14:42:45.901Z,17.97
2019-02-14T14:45:16.228Z,20.13
2019-02-14T14:47:44.729Z,17.53
2019-02-14T14:50:13.133Z,23.53
2019-02-14T14:52:41.558Z,18.60
2019-02-14T14:55:11.089Z,21.60
2019-02-14T14:57:39.509Z,19.60
2019-02-14T15:00:10.432Z,21.23
2019-02-14T15:02:38.847Z,20.40
2019-02-14T15:05:07.273Z,21.17
2019-02-14T15:07:37.212Z,18.17
2019-02-14T15:10:06.992Z,18.43
2019-02-14T15:12:35.446Z,15.80
2019-02-14T15:15:04.358Z,19.83
2019-02-14T15:17:33.281Z,21.40
2019-02-14T15:20:03.357Z,26.23
2019-02-14T15:22:31.850Z,21.57
2019-02-14T15:25:00.335Z,25.83
2019-02-14T15:27:28.944Z,15.70
2019-02-14T15:29:57.401Z,17.67
2019-02-14T15:32:25.862Z,22.33
2019-02-14T15:34:54.272Z,16.67
2019-02-14T15:37:22.685Z,20.10
2019-02-14T15:39:51.117Z,20.50
2019-02-14T15:42:19.544Z,19.03
2019-02-14T15:44:49.181Z,22.70
2019-02-14T15:47:17.589Z,24.00
2019-02-14T15:49:46.849Z,18.23
2019-02-14T15:52:16.151Z,23.13
2019-02-14T15:54:44.560Z,19.47
2019-02-14T15:57:12.965Z,20.10
2019-02-14T15:59:43.505Z,19.20
2019-02-14T16:02:11.573Z,17.93
2019-02-14T16:04:40.066Z,18.00
2019-02-14T16:07:08.494Z,17.63
2019-02-14T16:09:38.853Z,24.00
2019-02-14T16:12:07.045Z,17.43
2019-02-14T16:14:35.471Z,30.40
2019-02-14T16:17:04.200Z,30.73
2019-02-14T16:19:34.395Z,20.30
2019-02-14T16:22:02.844Z,21.40
2019-02-14T16:24:31.264Z,21.13
2019-02-14T16:27:01.169Z,21.37
2019-02-14T16:29:29.816Z,17.40
2019-02-14T16:31:58.232Z,19.80
2019-02-14T16:34:26.644Z,27.30
2019-02-14T16:36:55.060Z,21.17
2019-02-14T16:39:25.569Z,24.80
2019-02-14T16:41:53.632Z,23.00
2019-02-14T16:44:22.078Z,28.93
2019-02-14T16:46:50.493Z,30.37
2019-02-14T16:49:18.908Z,23.77
2019-02-14T16:51:47.377Z,34.23
2019-02-14T16:54:16.171Z,32.13
2019-02-14T16:56:44.574Z,23.50
2019-02-14T16:59:12.988Z,24.03
2019-02-14T17:01:41.421Z,26.60
2019-02-14T17:04:09.808Z,27.20
2019-02-14T17:06:38.241Z,26.17
2019-02-14T17:09:07.277Z,18.17
2019-02-14T17:11:35.680Z,33.47
2019-02-14T17:14:04.373Z,75.60
2019-02-14T17:16:32.794Z,27.60
2019-02-14T17:19:01.201Z,33.97
2019-02-14T17:21:29.613Z,34.10
2019-02-14T17:23:58.013Z,26.57
2019-02-14T17:26:26.433Z,23.83
2019-02-14T17:28:54.852Z,26.53
2019-02-14T17:31:23.265Z,26.33
2019-02-14T17:33:51.669Z,25.13
2019-02-14T17:36:20.111Z,25.93
2019-02-14T17:38:48.509Z,27.53
2019-02-14T17:41:16.929Z,26.90
2019-02-14T17:43:45.324Z,29.23
2019-02-14T17:46:13.741Z,23.17
2019-02-14T17:48:42.140Z,21.50
2019-02-14T17:51:10.552Z,21.77
2019-02-14T17:53:38.962Z,20.27
2019-02-14T17:56:07.401Z,24.97
2019-02-14T17:58:35.845Z,18.70
2019-02-14T18:01:04.254Z,22.30
2019-02-14T18:03:32.661Z,21.93
2019-02-14T18:06:01.098Z,28.73
2019-02-14T18:08:29.488Z,20.50
2019-02-14T18:10:57.905Z,23.03
2019-02-14T18:13:26.333Z,28.67
2019-02-14T18:15:54.757Z,25.30
2019-02-14T18:18:23.221Z,31.03
2019-02-14T18:20:51.709Z,22.00
2019-02-14T18:23:20.135Z,18.13
2019-02-14T18:25:48.806Z,24.90
2019-02-14T18:28:17.289Z,21.40
2019-02-14T18:30:47.192Z,23.70
2019-02-14T18:33:15.603Z,20.43
2019-02-14T18:35:44.021Z,23.80
2019-02-14T18:38:12.432Z,19.77
2019-02-14T18:40:40.836Z,22.37
2019-02-14T18:43:09.405Z,22.90
2019-02-14T18:45:37.866Z,22.00
2019-02-14T18:48:06.344Z,22.17
2019-02-14T18:50:34.866Z,29.63
2019-02-14T18:53:03.469Z,25.80
2019-02-14T18:55:31.881Z,20.83
2019-02-14T18:58:02.016Z,21.10
2019-02-14T19:00:30.454Z,25.10
2019-02-14T19:02:58.915Z,25.90
2019-02-14T19:05:27.771Z,22.77
2019-02-14T19:07:56.685Z,22.80
2019-02-14T19:10:25.176Z,23.77
2019-02-14T19:12:53.627Z,20.73
2019-02-14T19:15:22.166Z,24.17
2019-02-14T19:17:50.641Z,24.03
2019-02-14T19:20:19.091Z,22.40
2019-02-14T19:22:47.593Z,23.20
2019-02-14T19:25:16.037Z,25.10
2019-02-14T19:27:44.500Z,21.50
2019-02-14T19:30:14.183Z,21.57
2019-02-14T19:32:42.762Z,21.43
2019-02-14T19:35:11.342Z,24.03
2019-02-14T19:37:40.132Z,20.30
2019-02-14T19:40:08.916Z,23.00
2019-02-14T19:42:38.797Z,23.67
2019-02-14T19:45:10.320Z,22.63
2019-02-14T19:47:38.778Z,26.80
2019-02-14T19:50:09.928Z,26.03
2019-02-14T19:52:38.416Z,28.33
2019-02-14T19:55:08.888Z,22.83
2019-02-14T19:57:37.364Z,26.97
2019-02-14T20:00:14.344Z,23.73
2019-02-14T20:02:43.037Z,28.30
2019-02-14T20:05:11.562Z,27.20
2019-02-14T20:07:39.977Z,26.00
2019-02-14T20:10:14.262Z,21.13
2019-02-14T20:12:42.784Z,19.20
2019-02-14T20:15:21.856Z,24.00
2019-02-14T20:17:50.351Z,25.17
2019-02-14T20:20:18.833Z,26.13
2019-02-14T20:22:47.240Z,26.97
2019-02-14T20:25:20.652Z,20.00
2019-02-14T20:27:50.033Z,23.70
2019-02-14T20:30:18.781Z,27.53
2019-02-14T20:32:47.177Z,22.50
2019-02-14T20:35:15.611Z,24.20
2019-02-14T20:37:44.012Z,25.00
2019-02-14T20:40:12.437Z,22.73
2019-02-14T20:42:41.053Z,29.03
2019-02-14T20:45:12.417Z,31.13
2019-02-14T20:47:40.847Z,25.60
2019-02-14T20:50:12.557Z,20.63
2019-02-14T20:52:41.007Z,35.93
2019-02-14T20:55:12.629Z,24.40
2019-02-14T20:57:41.028Z,23.23
2019-02-14T21:00:16.148Z,21.20
2019-02-14T21:02:44.932Z,21.80
2019-02-14T21:05:13.357Z,22.50
2019-02-14T21:07:41.754Z,29.63
2019-02-14T21:10:10.192Z,23.40
2019-02-14T21:12:38.641Z,21.40
2019-02-14T21:15:08.894Z,26.33
2019-02-14T21:17:37.366Z,30.20
2019-02-14T21:20:08.954Z,21.77
2019-02-14T21:22:37.368Z,26.10
2019-02-14T21:25:07.938Z,23.60
2019-02-14T21:27:36.354Z,21.40
2019-02-14T21:30:08.025Z,25.97
2019-02-14T21:32:36.445Z,20.17
2019-02-14T21:35:06.157Z,19.00
2019-02-14T21:37:34.668Z,20.60
2019-02-14T21:40:04.468Z,20.10
2019-02-14T21:42:32.905Z,20.80
2019-02-14T21:45:01.470Z,20.30
2019-02-14T21:47:30.240Z,19.73
2019-02-14T21:49:58.759Z,22.53
2019-02-14T21:52:27.195Z,17.63
2019-02-14T21:54:55.691Z,29.00
2019-02-14T21:57:24.179Z,20.17
2019-02-14T21:59:52.587Z,22.77
2019-02-14T22:02:21.364Z,18.27
2019-02-14T22:04:51.994Z,23.10
2019-02-14T22:07:20.489Z,19.80
2019-02-14T22:09:48.957Z,18.27
2019-02-14T22:12:37.163Z,29.00
2019-02-14T22:14:47.559Z,24.03
2019-02-14T22:17:15.972Z,27.83
2019-02-14T22:19:44.373Z,17.60
2019-02-14T22:22:12.788Z,17.80
2019-02-14T22:24:41.208Z,25.43
2019-02-14T22:27:09.629Z,20.10
2019-02-14T22:29:38.029Z,22.10
2019-02-14T22:32:06.446Z,19.60
2019-02-14T22:34:34.849Z,20.50
2019-02-14T22:37:03.264Z,20.60
2019-02-14T22:39:31.666Z,23.40
2019-02-14T22:42:00.132Z,23.50
2019-02-14T22:44:28.697Z,19.83
2019-02-14T22:46:57.104Z,17.47
2019-02-14T22:49:25.525Z,21.60
2019-02-14T22:51:53.925Z,23.03
2019-02-14T22:54:22.342Z,27.53
2019-02-14T22:56:50.748Z,19.17
2019-02-14T22:59:19.170Z,21.60
2019-02-14T23:01:48.180Z,22.20
2019-02-14T23:04:16.589Z,19.07
2019-02-14T23:06:45.030Z,18.47
2019-02-14T23:09:13.456Z,23.90
2019-02-14T23:11:41.872Z,68.27
2019-02-14T23:14:10.284Z,32.23
2019-02-14T23:16:38.696Z,26.67
2019-02-14T23:19:07.116Z,23.17
2019-02-14T23:21:35.841Z,18.47
2019-02-14T23:24:04.308Z,26.00
2019-02-14T23:26:32.727Z,31.00
2019-02-14T23:29:01.154Z,20.00
2019-02-14T23:31:29.564Z,22.83
2019-02-14T23:33:57.983Z,21.50
2019-02-14T23:36:26.395Z,20.87
2019-02-14T23:38:54.796Z,21.67
2019-02-14T23:41:23.208Z,21.80
2019-02-14T23:43:51.629Z,21.27
2019-02-14T23:46:20.025Z,25.47
2019-02-14T23:48:48.453Z,22.27
2019-02-14T23:51:16.865Z,25.50
2019-02-14T23:53:45.300Z,25.67
2019-02-14T23:56:13.717Z,22.60
2019-02-14T23:58:42.163Z,30.03
